createdAt,value
2022-09-15T00:01:07.054Z,1.80
2022-09-15T00:03:34.449Z,2.05
2022-09-15T00:06:01.742Z,1.80
2022-09-15T00:08:29.110Z,2.20
2022-09-15T00:11:04.191Z,2.08
2022-09-15T00:13:31.098Z,2.20
2022-09-15T00:15:58.253Z,1.90
2022-09-15T00:18:25.662Z,2.10
2022-09-15T00:20:52.777Z,1.60
2022-09-15T00:23:19.688Z,2.03
2022-09-15T00:25:50.146Z,1.70
2022-09-15T00:28:18.588Z,1.73
2022-09-15T00:30:51.803Z,2.70
2022-09-15T00:33:20.039Z,1.80
2022-09-15T00:35:50.307Z,2.20
2022-09-15T00:38:18.768Z,1.80
2022-09-15T00:40:48.383Z,1.75
2022-09-15T00:43:17.874Z,1.85
2022-09-15T00:45:45.136Z,1.50
2022-09-15T00:48:22.513Z,2.03
2022-09-15T00:50:57.108Z,1.70
2022-09-15T00:53:25.997Z,1.75
2022-09-15T00:59:03.581Z,1.67
2022-09-15T01:01:32.144Z,1.70
2022-09-15T01:04:00.086Z,1.40
2022-09-15T01:06:34.379Z,1.90
2022-09-15T01:09:22.475Z,1.90
2022-09-15T01:11:50.010Z,1.60
2022-09-15T01:14:17.031Z,1.67
2022-09-15T01:17:03.996Z,1.73
2022-09-15T01:19:52.793Z,2.08
2022-09-15T01:22:54.144Z,1.83
2022-09-15T01:25:35.349Z,1.60
2022-09-15T01:28:30.283Z,1.25
2022-09-15T01:31:03.608Z,2.20
2022-09-15T01:33:53.971Z,1.50
2022-09-15T01:36:28.833Z,1.70
2022-09-15T01:39:24.149Z,2.25
2022-09-15T01:41:56.930Z,1.92
2022-09-15T01:44:30.945Z,1.60
2022-09-15T01:47:03.397Z,1.77
2022-09-15T01:50:10.458Z,1.50
2022-09-15T01:52:44.755Z,1.40
2022-09-15T01:55:18.680Z,1.98
2022-09-15T01:57:45.726Z,1.73
2022-09-15T02:00:13.174Z,1.73
2022-09-15T02:02:48.301Z,1.77
2022-09-15T02:05:21.779Z,1.67
2022-09-15T02:08:09.275Z,2.25
2022-09-15T02:10:49.215Z,1.58
2022-09-15T02:13:17.191Z,1.73
2022-09-15T02:15:57.671Z,2.20
2022-09-15T02:18:43.908Z,1.60
2022-09-15T02:21:29.810Z,1.65
2022-09-15T02:24:03.629Z,1.67
2022-09-15T02:26:34.620Z,1.63
2022-09-15T02:31:35.411Z,1.50
2022-09-15T02:34:11.435Z,1.73
2022-09-15T02:36:41.082Z,1.70
2022-09-15T02:39:12.827Z,1.52
2022-09-15T02:41:40.378Z,1.80
2022-09-15T02:46:35.853Z,2.08
2022-09-15T02:49:03.333Z,2.00
2022-09-15T02:51:31.160Z,1.67
2022-09-15T02:53:58.191Z,1.50
2022-09-15T02:56:25.389Z,1.88
2022-09-15T02:58:52.387Z,1.63
2022-09-15T03:01:19.678Z,1.98
2022-09-15T03:03:47.059Z,1.85
2022-09-15T03:06:17.345Z,1.75
2022-09-15T03:08:50.927Z,2.13
2022-09-15T03:11:20.120Z,1.85
2022-09-15T03:13:48.000Z,2.67
2022-09-15T03:16:17.300Z,1.90
2022-09-15T03:18:44.325Z,2.03
2022-09-15T03:21:13.615Z,2.50
2022-09-15T03:23:41.834Z,2.28
2022-09-15T03:26:10.476Z,1.77
2022-09-15T03:28:38.478Z,1.98
2022-09-15T03:31:06.728Z,2.03
2022-09-15T03:33:34.179Z,2.85
2022-09-15T03:36:03.617Z,2.55
2022-09-15T03:38:30.964Z,2.67
2022-09-15T03:41:03.233Z,2.10
2022-09-15T03:43:31.919Z,2.30
2022-09-15T03:45:59.741Z,2.20
2022-09-15T03:48:28.642Z,2.42
2022-09-15T03:50:55.657Z,1.92
2022-09-15T03:53:23.122Z,2.28
2022-09-15T03:55:50.136Z,2.30
2022-09-15T03:58:18.628Z,2.30
2022-09-15T04:00:46.579Z,2.47
2022-09-15T04:03:13.901Z,2.75
2022-09-15T04:05:42.244Z,2.28
2022-09-15T04:08:12.511Z,2.72
2022-09-15T04:10:40.803Z,2.65
2022-09-15T04:13:08.466Z,2.28
2022-09-15T04:15:35.422Z,2.30
2022-09-15T04:18:02.376Z,2.30
2022-09-15T04:20:29.299Z,2.63
2022-09-15T04:22:56.251Z,2.80
2022-09-15T04:25:24.285Z,2.50
2022-09-15T04:27:51.209Z,2.58
2022-09-15T04:30:18.215Z,2.78
2022-09-15T04:32:45.335Z,2.15
2022-09-15T04:35:12.393Z,2.10
2022-09-15T04:37:39.849Z,2.55
2022-09-15T04:40:07.501Z,3.22
2022-09-15T04:42:34.466Z,2.63
2022-09-15T04:45:01.684Z,2.80
2022-09-15T04:47:28.596Z,2.42
2022-09-15T04:49:55.540Z,3.13
2022-09-15T04:52:22.440Z,2.63
2022-09-15T04:54:49.353Z,2.60
2022-09-15T04:57:16.353Z,2.30
2022-09-15T04:59:43.273Z,2.00
2022-09-15T05:02:10.229Z,2.30
2022-09-15T05:04:37.149Z,2.30
2022-09-15T05:07:04.103Z,2.63
2022-09-15T05:09:31.323Z,2.63
2022-09-15T05:11:58.316Z,2.58
2022-09-15T05:14:25.292Z,2.00
2022-09-15T05:16:52.282Z,2.13
2022-09-15T05:19:19.744Z,2.30
2022-09-15T05:21:46.696Z,2.13
2022-09-15T05:24:14.065Z,2.72
2022-09-15T05:26:41.746Z,2.40
2022-09-15T05:29:08.829Z,2.33
2022-09-15T05:31:35.868Z,2.20
2022-09-15T05:34:04.561Z,2.38
2022-09-15T05:36:32.260Z,2.42
2022-09-15T05:38:59.667Z,2.03
2022-09-15T05:41:30.159Z,1.88
2022-09-15T05:43:58.233Z,1.88
2022-09-15T05:46:26.334Z,2.28
2022-09-15T05:48:55.407Z,1.98
2022-09-15T05:51:24.546Z,2.45
2022-09-15T05:53:51.864Z,2.58
2022-09-15T05:56:20.290Z,2.17
2022-09-15T05:58:48.866Z,2.50
2022-09-15T06:01:18.828Z,2.42
2022-09-15T06:03:46.482Z,2.45
2022-09-15T06:06:13.931Z,1.88
2022-09-15T06:08:44.366Z,2.40
2022-09-15T06:13:40.321Z,2.00
2022-09-15T06:16:12.927Z,1.95
2022-09-15T06:18:40.808Z,1.88
2022-09-15T06:21:13.970Z,2.28
2022-09-15T06:23:41.750Z,2.28
2022-09-15T06:26:14.853Z,2.38
2022-09-15T06:28:47.281Z,2.35
2022-09-15T06:31:15.420Z,2.45
2022-09-15T06:33:48.278Z,2.22
2022-09-15T06:36:16.368Z,2.75
2022-09-15T06:38:44.111Z,2.30
2022-09-15T06:41:11.969Z,2.30
2022-09-15T06:43:39.184Z,2.10
2022-09-15T06:46:14.698Z,2.30
2022-09-15T06:48:45.253Z,2.05
2022-09-15T06:51:17.223Z,1.95
2022-09-15T06:53:45.043Z,1.83
2022-09-15T06:56:20.698Z,1.55
2022-09-15T06:58:50.683Z,1.80
2022-09-15T07:01:29.547Z,1.60
2022-09-15T07:03:58.244Z,1.60
2022-09-15T07:06:28.965Z,1.73
2022-09-15T07:08:56.831Z,1.88
2022-09-15T07:11:23.785Z,1.33
2022-09-15T07:13:51.220Z,1.50
2022-09-15T07:16:19.674Z,1.73
2022-09-15T07:18:47.689Z,1.70
2022-09-15T07:21:17.083Z,1.80
2022-09-15T07:23:44.385Z,1.35
2022-09-15T07:26:19.200Z,1.42
2022-09-15T07:28:50.097Z,1.40
2022-09-15T07:33:45.939Z,1.38
2022-09-15T07:36:12.930Z,1.70
2022-09-15T07:38:42.750Z,1.15
2022-09-15T07:41:30.542Z,1.60
2022-09-15T07:44:00.058Z,1.65
2022-09-15T07:46:30.599Z,1.60
2022-09-15T07:48:57.892Z,1.23
2022-09-15T07:51:25.909Z,1.63
2022-09-15T07:53:53.726Z,1.52
2022-09-15T07:56:21.737Z,1.63
2022-09-15T07:58:49.545Z,1.20
2022-09-15T08:01:18.310Z,1.38
2022-09-15T08:03:49.065Z,1.67
2022-09-15T08:06:21.569Z,1.30
2022-09-15T08:08:50.347Z,1.20
2022-09-15T08:11:19.432Z,1.60
2022-09-15T08:13:47.711Z,1.38
2022-09-15T08:16:18.143Z,1.60
2022-09-15T08:18:45.968Z,1.70
2022-09-15T08:21:16.209Z,1.80
2022-09-15T08:23:44.114Z,1.80
2022-09-15T08:26:14.356Z,1.50
2022-09-15T08:28:42.325Z,1.50
2022-09-15T08:31:11.678Z,1.73
2022-09-15T08:33:43.324Z,1.65
2022-09-15T08:36:12.665Z,2.08
2022-09-15T08:38:47.209Z,1.73
2022-09-15T08:41:22.997Z,1.40
2022-09-15T08:44:08.404Z,1.88
2022-09-15T08:46:47.895Z,1.50
2022-09-15T08:49:47.408Z,1.50
2022-09-15T08:52:35.961Z,1.40
2022-09-15T08:55:26.781Z,1.50
2022-09-15T08:57:54.710Z,1.60
2022-09-15T09:00:23.749Z,1.42
2022-09-15T09:03:32.110Z,1.50
2022-09-15T09:06:17.483Z,1.27
2022-09-15T09:09:15.324Z,1.55
2022-09-15T09:12:03.131Z,1.92
2022-09-15T09:14:59.948Z,1.50
2022-09-15T09:18:04.066Z,2.22
2022-09-15T09:21:02.958Z,1.70
2022-09-15T09:23:43.047Z,1.60
2022-09-15T09:26:12.419Z,1.63
2022-09-15T09:28:55.356Z,1.33
2022-09-15T09:31:25.055Z,1.30
2022-09-15T09:33:58.985Z,1.10
2022-09-15T09:36:27.164Z,1.27
2022-09-15T09:38:55.850Z,1.90
2022-09-15T09:41:35.708Z,1.40
2022-09-15T09:44:05.900Z,1.42
2022-09-15T09:46:33.158Z,1.73
2022-09-15T09:49:12.321Z,1.23
2022-09-15T09:51:53.113Z,1.60
2022-09-15T09:54:22.373Z,2.05
2022-09-15T09:56:50.861Z,1.40
2022-09-15T09:59:56.699Z,1.80
2022-09-15T10:02:24.953Z,1.60
2022-09-15T10:05:05.882Z,1.58
2022-09-15T10:10:02.060Z,1.60
2022-09-15T10:12:38.730Z,1.73
2022-09-15T10:15:08.637Z,2.20
2022-09-15T10:17:43.166Z,1.85
2022-09-15T10:20:24.755Z,2.38
2022-09-15T10:22:52.753Z,1.80
2022-09-15T10:25:22.443Z,2.05
2022-09-15T10:28:14.537Z,1.92
2022-09-15T10:31:01.300Z,2.00
2022-09-15T10:33:35.232Z,1.88
2022-09-15T10:36:05.879Z,1.60
2022-09-15T10:38:45.841Z,2.55
2022-09-15T10:41:24.629Z,1.90
2022-09-15T10:44:23.073Z,1.60
2022-09-15T10:47:11.145Z,2.10
2022-09-15T10:49:52.893Z,1.85
2022-09-15T10:52:31.846Z,2.17
2022-09-15T10:55:01.491Z,2.38
2022-09-15T10:57:37.864Z,2.05
2022-09-15T11:00:11.748Z,2.05
2022-09-15T11:03:03.797Z,1.67
2022-09-15T11:05:39.465Z,1.85
2022-09-15T11:08:49.182Z,1.83
2022-09-15T11:11:25.222Z,2.53
2022-09-15T11:14:06.167Z,1.98
2022-09-15T11:17:10.430Z,2.00
2022-09-15T11:19:59.173Z,1.90
2022-09-15T11:22:42.124Z,2.65
2022-09-15T11:25:20.616Z,2.50
2022-09-15T11:27:47.539Z,1.70
2022-09-15T11:30:23.634Z,2.13
2022-09-15T11:33:20.315Z,2.35
2022-09-15T11:36:11.250Z,2.08
2022-09-15T11:38:49.141Z,1.38
2022-09-15T11:41:34.700Z,2.25
2022-09-15T11:44:26.572Z,4.40
2022-09-15T11:47:05.492Z,2.28
2022-09-15T11:50:01.380Z,2.28
2022-09-15T11:52:44.785Z,1.60
2022-09-15T11:55:40.670Z,1.77
2022-09-15T11:58:29.670Z,2.20
2022-09-15T12:01:08.964Z,1.70
2022-09-15T12:03:57.416Z,1.42
2022-09-15T12:06:52.405Z,1.70
2022-09-15T12:09:21.048Z,1.33
2022-09-15T12:11:56.650Z,1.45
2022-09-15T12:14:38.707Z,3.00
2022-09-15T12:17:06.650Z,1.20
2022-09-15T12:19:33.628Z,1.30
2022-09-15T12:22:31.154Z,1.20
2022-09-15T12:25:36.287Z,1.10
2022-09-15T12:28:39.730Z,0.93
2022-09-15T12:31:14.099Z,1.30
2022-09-15T12:33:53.686Z,1.00
2022-09-15T12:36:47.724Z,1.10
2022-09-15T12:39:28.444Z,1.40
2022-09-15T12:42:01.249Z,1.00
2022-09-15T12:44:31.057Z,1.13
2022-09-15T12:46:59.362Z,1.20
2022-09-15T12:49:47.127Z,1.15
2022-09-15T12:52:15.156Z,1.42
2022-09-15T12:54:45.513Z,1.02
2022-09-15T12:57:29.348Z,0.88
2022-09-15T13:00:21.256Z,0.60
2022-09-15T13:02:50.317Z,0.75
2022-09-15T13:05:41.980Z,0.88
2022-09-15T13:08:36.280Z,0.82
2022-09-15T13:11:17.339Z,0.85
2022-09-15T13:16:18.107Z,1.17
2022-09-15T13:18:47.162Z,0.63
2022-09-15T13:21:19.586Z,0.98
2022-09-15T13:23:50.913Z,0.70
2022-09-15T13:26:24.126Z,0.80
2022-09-15T13:28:55.670Z,0.70
2022-09-15T13:31:45.855Z,0.90
2022-09-15T13:35:15.160Z,0.70
2022-09-15T13:40:50.598Z,0.70
2022-09-15T13:43:41.164Z,0.77
2022-09-15T13:46:19.095Z,1.00
2022-09-15T13:49:15.259Z,1.13
2022-09-15T13:51:46.415Z,0.90
2022-09-15T13:54:19.691Z,0.70
2022-09-15T13:56:53.289Z,1.00
2022-09-15T13:59:25.334Z,0.90
2022-09-15T14:01:53.982Z,1.10
2022-09-15T14:04:25.567Z,0.95
2022-09-15T14:06:58.637Z,0.90
2022-09-15T14:09:31.122Z,0.77
2022-09-15T14:12:02.603Z,1.20
2022-09-15T14:14:34.667Z,1.25
2022-09-15T14:17:01.896Z,1.35
2022-09-15T14:19:33.923Z,1.10
2022-09-15T14:22:18.163Z,1.10
2022-09-15T14:24:45.393Z,1.00
2022-09-15T14:27:13.188Z,0.85
2022-09-15T14:29:42.507Z,1.08
2022-09-15T14:32:15.013Z,1.13
2022-09-15T14:34:43.354Z,2.00
2022-09-15T14:37:27.599Z,3.65
2022-09-15T14:39:57.317Z,2.13
2022-09-15T14:42:35.609Z,1.60
2022-09-15T14:48:18.445Z,2.20
2022-09-15T14:50:56.967Z,1.50
2022-09-15T14:53:26.203Z,1.33
2022-09-15T14:56:07.729Z,2.10
2022-09-15T14:58:47.541Z,2.47
2022-09-15T15:01:22.647Z,3.15
2022-09-15T15:03:55.011Z,6.20
2022-09-15T15:06:45.310Z,6.38
2022-09-15T15:09:21.528Z,5.27
2022-09-15T15:11:57.882Z,5.30
2022-09-15T15:14:26.171Z,9.65
2022-09-15T15:16:58.980Z,9.90
2022-09-15T15:19:40.841Z,5.72
2022-09-15T15:22:15.530Z,5.97
2022-09-15T15:24:44.937Z,2.90
2022-09-15T15:27:32.938Z,1.92
2022-09-15T15:30:35.966Z,2.10
2022-09-15T15:33:04.944Z,3.72
2022-09-15T15:35:33.738Z,2.70
2022-09-15T15:38:07.956Z,1.88
2022-09-15T15:40:38.002Z,2.40
2022-09-15T15:43:26.542Z,1.93
2022-09-15T15:45:58.422Z,2.03
2022-09-15T15:48:26.666Z,1.80
2022-09-15T15:50:53.938Z,1.80
2022-09-15T15:53:20.936Z,2.40
2022-09-15T15:55:48.249Z,1.60
2022-09-15T15:58:16.137Z,1.60
2022-09-15T16:00:46.448Z,1.40
2022-09-15T16:03:15.322Z,13.52
2022-09-15T16:05:46.181Z,4.43
2022-09-15T16:08:23.040Z,2.85
2022-09-15T16:10:51.173Z,2.63
2022-09-15T16:13:20.155Z,1.48
2022-09-15T16:15:47.305Z,1.60
2022-09-15T16:18:14.449Z,1.30
2022-09-15T16:20:41.949Z,2.38
2022-09-15T16:23:15.034Z,1.95
2022-09-15T16:25:54.873Z,1.55
2022-09-15T16:28:22.452Z,1.17
2022-09-15T16:30:49.478Z,1.10
2022-09-15T16:33:18.360Z,1.80
2022-09-15T16:36:07.181Z,1.27
2022-09-15T16:38:37.114Z,1.00
2022-09-15T16:41:10.437Z,1.55
2022-09-15T16:43:37.342Z,1.40
2022-09-15T16:46:06.496Z,1.20
2022-09-15T16:48:34.301Z,1.20
2022-09-15T16:51:20.850Z,1.17
2022-09-15T16:53:49.326Z,1.05
2022-09-15T16:56:16.285Z,1.05
2022-09-15T16:58:43.730Z,1.15
2022-09-15T17:01:18.993Z,1.20
2022-09-15T17:03:46.115Z,1.10
2022-09-15T17:06:15.093Z,1.00
2022-09-15T17:08:42.285Z,0.98
2022-09-15T17:11:16.756Z,1.00
2022-09-15T17:13:44.955Z,1.30
2022-09-15T17:16:14.983Z,1.27
2022-09-15T17:18:41.959Z,1.00
2022-09-15T17:21:11.448Z,1.10
2022-09-15T17:23:41.084Z,1.00
2022-09-15T17:26:27.613Z,1.30
2022-09-15T17:28:58.421Z,0.90
2022-09-15T17:31:25.905Z,1.42
2022-09-15T17:33:54.041Z,1.30
2022-09-15T17:36:21.167Z,1.20
2022-09-15T17:38:51.138Z,1.10
2022-09-15T17:41:22.858Z,1.30
2022-09-15T17:43:50.087Z,1.45
2022-09-15T17:46:17.066Z,1.50
2022-09-15T17:48:44.117Z,1.10
2022-09-15T17:51:17.470Z,1.10
2022-09-15T17:53:46.525Z,1.20
2022-09-15T17:56:13.520Z,1.20
2022-09-15T17:58:41.517Z,1.20
2022-09-15T18:01:11.863Z,1.15
2022-09-15T18:03:38.976Z,1.33
2022-09-15T18:06:08.277Z,1.17
2022-09-15T18:08:44.992Z,0.90
2022-09-15T18:11:15.010Z,1.10
2022-09-15T18:13:42.002Z,0.98
2022-09-15T18:16:15.175Z,1.10
2022-09-15T18:18:43.088Z,1.40
2022-09-15T18:21:19.552Z,1.33
2022-09-15T18:23:46.582Z,1.20
2022-09-15T18:26:13.571Z,1.10
2022-09-15T18:28:40.527Z,1.40
2022-09-15T18:31:07.547Z,1.50
2022-09-15T18:33:34.473Z,1.55
2022-09-15T18:36:01.574Z,1.35
2022-09-15T18:38:28.581Z,1.70
2022-09-15T18:40:57.149Z,1.42
2022-09-15T18:43:26.547Z,1.40
2022-09-15T18:45:58.726Z,1.50
2022-09-15T18:48:25.782Z,1.33
2022-09-15T18:50:53.509Z,1.23
2022-09-15T18:53:20.629Z,1.90
2022-09-15T18:55:47.691Z,1.33
2022-09-15T18:58:14.730Z,1.40
2022-09-15T19:00:41.714Z,1.30
2022-09-15T19:03:09.648Z,1.50
2022-09-15T19:05:37.311Z,1.15
2022-09-15T19:08:04.715Z,1.88
2022-09-15T19:10:32.557Z,1.23
2022-09-15T19:12:59.524Z,1.42
2022-09-15T19:15:27.738Z,1.17
2022-09-15T19:17:54.654Z,0.98
2022-09-15T19:20:21.565Z,1.08
2022-09-15T19:22:48.557Z,1.42
2022-09-15T19:25:15.701Z,1.13
2022-09-15T19:27:43.166Z,1.25
2022-09-15T19:30:12.053Z,1.30
2022-09-15T19:32:39.939Z,1.40
2022-09-15T19:35:08.049Z,1.20
2022-09-15T19:37:39.998Z,1.25
2022-09-15T19:40:09.685Z,1.17
2022-09-15T19:42:38.642Z,1.67
2022-09-15T19:45:06.744Z,1.50
2022-09-15T19:47:34.055Z,1.30
2022-09-15T19:50:01.209Z,1.30
2022-09-15T19:52:28.530Z,1.33
2022-09-15T19:54:55.511Z,2.55
2022-09-15T19:57:22.699Z,1.40
2022-09-15T19:59:50.197Z,2.30
2022-09-15T20:02:17.455Z,2.05
2022-09-15T20:07:29.049Z,2.90
2022-09-15T20:09:55.956Z,4.55
2022-09-15T20:12:24.074Z,2.35
2022-09-15T20:14:51.310Z,1.85
2022-09-15T20:17:18.562Z,2.50
2022-09-15T20:19:45.532Z,1.50
2022-09-15T20:22:12.515Z,1.50
2022-09-15T20:24:40.338Z,1.35
2022-09-15T20:27:08.940Z,1.30
2022-09-15T20:29:35.932Z,1.40
2022-09-15T20:32:03.025Z,1.60
2022-09-15T20:34:30.006Z,1.80
2022-09-15T20:36:56.924Z,1.92
2022-09-15T20:39:24.482Z,2.33
2022-09-15T20:41:51.427Z,1.42
2022-09-15T20:44:18.663Z,2.00
2022-09-15T20:46:45.628Z,2.60
2022-09-15T20:49:12.801Z,2.20
2022-09-15T20:51:39.968Z,3.30
2022-09-15T20:54:06.942Z,3.33
2022-09-15T20:56:35.437Z,2.47
2022-09-15T20:59:04.037Z,3.28
2022-09-15T21:01:36.903Z,1.70
2022-09-15T21:04:05.968Z,1.90
2022-09-15T21:06:33.255Z,1.42
2022-09-15T21:09:00.402Z,2.20
2022-09-15T21:11:28.585Z,1.65
2022-09-15T21:13:56.414Z,2.70
2022-09-15T21:16:26.336Z,2.40
2022-09-15T21:18:53.786Z,2.10
2022-09-15T21:21:27.642Z,3.50
2022-09-15T21:23:56.950Z,2.08
2022-09-15T21:26:29.466Z,2.28
2022-09-15T21:28:57.426Z,2.25
2022-09-15T21:31:30.170Z,2.17
2022-09-15T21:33:58.286Z,2.15
2022-09-15T21:36:28.174Z,1.98
2022-09-15T21:38:56.964Z,1.80
2022-09-15T21:41:26.832Z,1.98
2022-09-15T21:43:58.428Z,1.50
2022-09-15T21:46:28.144Z,1.40
2022-09-15T21:48:57.586Z,1.65
2022-09-15T21:51:26.255Z,1.67
2022-09-15T21:53:54.831Z,1.48
2022-09-15T21:56:22.577Z,1.13
2022-09-15T21:58:49.961Z,1.30
2022-09-15T22:01:21.503Z,1.40
2022-09-15T22:03:50.748Z,1.50
2022-09-15T22:06:19.583Z,1.60
2022-09-15T22:11:20.208Z,2.03
2022-09-15T22:13:47.230Z,1.30
2022-09-15T22:16:17.398Z,1.20
2022-09-15T22:18:44.956Z,1.42
2022-09-15T22:21:31.630Z,1.10
2022-09-15T22:23:59.641Z,1.23
2022-09-15T22:26:32.624Z,1.20
2022-09-15T22:29:00.276Z,1.33
2022-09-15T22:31:28.564Z,1.60
2022-09-15T22:33:56.333Z,1.30
2022-09-15T22:36:29.357Z,1.23
2022-09-15T22:39:04.128Z,1.80
2022-09-15T22:41:35.691Z,1.42
2022-09-15T22:44:03.265Z,1.30
2022-09-15T22:46:30.272Z,1.27
2022-09-15T22:48:57.545Z,1.40
2022-09-15T22:51:24.633Z,1.38
2022-09-15T22:53:56.821Z,1.45
2022-09-15T22:56:26.121Z,1.40
2022-09-15T22:58:54.148Z,1.50
2022-09-15T23:01:23.369Z,1.58
2022-09-15T23:03:55.829Z,1.10
2022-09-15T23:06:24.475Z,1.35
2022-09-15T23:08:56.020Z,1.67
2022-09-15T23:11:24.337Z,1.40
2022-09-15T23:13:52.059Z,1.48
2022-09-15T23:16:19.599Z,1.40
2022-09-15T23:18:47.051Z,1.50
2022-09-15T23:21:14.631Z,1.50
2022-09-15T23:23:44.374Z,1.35
2022-09-15T23:26:13.326Z,1.50
2022-09-15T23:28:40.452Z,2.05
2022-09-15T23:31:08.863Z,1.40
2022-09-15T23:33:36.316Z,1.45
2022-09-15T23:36:05.821Z,1.25
2022-09-15T23:38:39.530Z,1.23
2022-09-15T23:41:07.544Z,1.20
2022-09-15T23:43:35.076Z,1.63
2022-09-15T23:46:02.991Z,1.50
2022-09-15T23:48:31.760Z,1.45
2022-09-15T23:50:59.116Z,1.73
2022-09-15T23:53:26.198Z,1.60
2022-09-15T23:55:53.146Z,1.40
2022-09-15T23:58:20.153Z,1.40
